Time;durP1;ratioP1;P1;durP2;ratioP2;P2;SDS_P1;SDS_P2;PMS_P1;PMS_P2;Temp;Humidity;BMP_temperature;BMP_pressure;BME280_temperature;BME280_humidity;BME280_pressure;Samples;Min_cycle;Max_cycle;Signal;HPM_P1;HPM_P2
2022/03/27 00:01:31;;;;;;;;;49.50;35.50;;;;;12.86;85.36;102046.88;4989306;28;45621;-76
2022/03/27 00:03:57;;;;;;;;;42.00;37.50;;;;;13.92;86.57;102233.03;4989036;28;45342;-74
2022/03/27 00:06:26;;;;;;;;;38.25;32.25;;;;;13.89;85.37;102237.78;4988992;28;45164;-76
2022/03/27 00:08:51;;;;;;;;;44.50;36.00;;;;;13.62;85.77;102211.03;4989382;28;45121;-76
2022/03/27 00:11:28;;;;;;;;;44.75;35.00;;;;;13.81;85.71;102232.75;4990032;28;45204;-76
2022/03/27 00:13:59;;;;;;;;;43.75;33.00;;;;;13.57;88.42;102194.03;4991049;28;45130;-78
2022/03/27 00:16:25;;;;;;;;;42.75;33.00;;;;;12.28;88.93;101987.34;4991283;28;45493;-77
2022/03/27 00:18:50;;;;;;;;;40.75;35.75;;;;;13.75;88.49;102233.13;4990122;28;45134;-76
2022/03/27 00:21:16;;;;;;;;;40.50;35.25;;;;;13.38;89.89;102169.63;4988965;28;45121;-76
2022/03/27 00:23:43;;;;;;;;;47.50;35.50;;;;;13.31;90.33;102168.19;4989698;28;44955;-76
2022/03/27 00:26:11;;;;;;;;;43.25;35.75;;;;;13.68;89.88;102248.94;4989014;28;45103;-77
2022/03/27 00:28:37;;;;;;;;;48.50;37.25;;;;;13.56;89.34;102218.72;4988553;28;45190;-76
2022/03/27 00:31:05;;;;;;;;;47.75;37.25;;;;;13.67;88.73;102235.38;4989325;28;45174;-75
2022/03/27 00:33:32;;;;;;;;;43.00;33.25;;;;;12.94;93.94;102110.13;4989546;28;45090;-76
2022/03/27 00:35:58;;;;;;;;;43.75;34.75;;;;;12.45;87.55;102041.84;4989064;28;45026;-76
2022/03/27 00:38:25;;;;;;;;;45.00;36.00;;;;;13.26;94.42;102174.88;4988665;28;45252;-77
2022/03/27 00:40:52;;;;;;;;;47.75;35.25;;;;;13.54;90.40;102226.13;4989508;28;45714;-77
2022/03/27 00:43:19;;;;;;;;;53.75;38.25;;;;;13.25;90.67;102187.63;4988294;28;45209;-77
2022/03/27 00:45:46;;;;;;;;;41.25;35.25;;;;;13.09;90.54;102163.00;4988579;28;45149;-76
2022/03/27 00:48:15;;;;;;;;;39.75;34.25;;;;;11.87;90.39;101946.84;4988675;28;45145;-77
2022/03/27 00:50:41;;;;;;;;;47.00;36.75;;;;;13.12;89.13;102176.47;4993113;28;45263;-79
2022/03/27 00:53:08;;;;;;;;;48.50;37.00;;;;;13.01;91.67;102150.72;5000322;28;44992;-78
2022/03/27 00:55:33;;;;;;;;;45.50;34.50;;;;;13.27;94.21;102191.16;5003083;28;44823;-77
2022/03/27 00:57:59;;;;;;;;;44.75;36.50;;;;;13.29;92.89;102202.03;5002353;28;45381;-77
2022/03/27 01:00:48;;;;;;;;;37.75;28.75;;;;;13.45;91.07;102224.78;4984466;28;47037;-78
2022/03/27 01:03:17;;;;;;;;;52.50;36.50;;;;;11.64;90.84;101922.63;4982111;28;45254;-77
2022/03/27 01:05:44;;;;;;;;;46.00;36.75;;;;;12.53;91.78;102085.09;5000259;28;45280;-80
2022/03/27 01:08:13;;;;;;;;;45.25;35.25;;;;;13.38;96.16;102220.59;5000034;28;45085;-77
2022/03/27 01:10:39;;;;;;;;;46.00;34.50;;;;;13.37;94.17;102218.84;5000158;28;45435;-79
2022/03/27 01:13:18;;;;;;;;;45.00;35.50;;;;;12.43;92.99;102051.97;4981121;28;45462;-77
2022/03/27 01:15:53;;;;;;;;;47.75;37.00;;;;;12.86;95.26;102128.75;4993551;28;45119;-77
2022/03/27 01:18:18;;;;;;;;;46.25;36.50;;;;;13.31;96.41;102219.19;4993767;28;45848;-77
2022/03/27 01:20:44;;;;;;;;;44.50;34.75;;;;;13.28;96.06;102225.72;4992859;28;45067;-77
2022/03/27 01:23:11;;;;;;;;;50.25;36.50;;;;;13.27;96.94;102215.75;4992834;28;45059;-79
2022/03/27 01:25:38;;;;;;;;;46.75;38.25;;;;;12.86;94.03;102152.44;4993036;28;44960;-77
2022/03/27 01:28:05;;;;;;;;;45.75;38.00;;;;;12.52;99.35;102093.34;4992992;28;45222;-79
2022/03/27 01:30:31;;;;;;;;;47.25;37.50;;;;;13.07;95.03;102194.06;4992811;28;45517;-82
2022/03/27 01:32:57;;;;;;;;;43.75;34.75;;;;;13.12;95.20;102211.97;4992323;28;45136;-78
2022/03/27 01:35:25;;;;;;;;;49.75;39.75;;;;;12.99;96.11;102189.91;4974353;28;45311;-78
2022/03/27 01:37:50;;;;;;;;;48.25;36.00;;;;;11.98;96.30;102013.53;4992624;28;45201;-76
2022/03/27 01:40:17;;;;;;;;;46.75;38.00;;;;;12.72;96.05;102145.91;4991811;28;45269;-77
2022/03/27 01:42:43;;;;;;;;;47.50;39.50;;;;;12.91;97.54;102178.53;4992003;28;45039;-81
2022/03/27 01:45:09;;;;;;;;;49.00;37.25;;;;;13.05;100.00;102194.16;4991520;28;45141;-78
2022/03/27 01:47:36;;;;;;;;;46.75;36.75;;;;;13.04;96.71;102191.53;4991476;28;45153;-77
2022/03/27 01:50:02;;;;;;;;;47.75;37.75;;;;;12.36;99.10;102074.19;4973519;28;47502;-78
2022/03/27 01:52:27;;;;;;;;;56.50;40.50;;;;;12.64;97.18;102125.44;4991369;28;45236;-76
2022/03/27 01:54:53;;;;;;;;;44.25;37.50;;;;;12.99;98.89;102183.56;4991682;28;45201;-76
2022/03/27 01:57:18;;;;;;;;;52.00;38.50;;;;;13.02;97.17;102183.41;4974114;28;45380;-77
2022/03/27 01:59:44;;;;;;;;;52.25;39.00;;;;;12.29;100.00;102053.69;4991405;28;45696;-78
2022/03/27 02:02:09;;;;;;;;;54.25;39.00;;;;;12.92;99.56;102168.47;4990568;28;45075;-81
2022/03/27 02:04:35;;;;;;;;;49.50;39.50;;;;;12.62;100.00;102110.97;4991485;28;45346;-76
2022/03/27 02:07:01;;;;;;;;;48.75;39.00;;;;;12.96;99.19;102170.09;4991686;28;45082;-76
2022/03/27 02:09:26;;;;;;;;;51.75;42.50;;;;;12.93;100.00;102171.16;4991434;28;45302;-76
2022/03/27 02:11:52;;;;;;;;;51.25;38.25;;;;;11.62;100.00;101951.81;4992299;28;45372;-77
2022/03/27 02:14:17;;;;;;;;;40.00;32.00;;;;;12.22;100.00;102055.84;4992569;28;45257;-79
2022/03/27 02:16:42;;;;;;;;;52.50;36.25;;;;;12.90;100.00;102174.03;4993192;28;45166;-77
2022/03/27 02:19:09;;;;;;;;;48.00;35.50;;;;;12.88;100.00;102170.50;4992172;28;45179;-76
2022/03/27 02:21:36;;;;;;;;;45.50;37.50;;;;;12.85;100.00;102170.66;4992007;28;45193;-76
2022/03/27 02:24:04;;;;;;;;;50.75;37.25;;;;;12.29;100.00;102078.22;4991829;28;45213;-77
2022/03/27 02:26:31;;;;;;;;;52.75;39.25;;;;;12.85;100.00;102181.59;4991370;28;45280;-79
2022/03/27 02:28:56;;;;;;;;;47.50;38.25;;;;;12.72;100.00;102154.09;4991625;28;45182;-77
2022/03/27 02:31:22;;;;;;;;;49.00;38.25;;;;;11.51;100.00;101946.91;4989980;28;45229;-77
2022/03/27 02:33:48;;;;;;;;;53.50;40.25;;;;;12.37;100.00;102106.84;4971571;28;45028;-77
2022/03/27 02:36:14;;;;;;;;;50.25;39.50;;;;;11.76;100.00;101997.38;4989209;28;45148;-78
2022/03/27 02:38:40;;;;;;;;;48.75;39.50;;;;;11.80;100.00;102016.19;4988995;28;45604;-80
2022/03/27 02:41:06;;;;;;;;;39.75;33.00;;;;;12.23;100.00;102093.06;4989179;28;45170;-82
2022/03/27 02:43:32;;;;;;;;;45.25;34.00;;;;;12.61;100.00;102158.31;4988981;28;45164;-76
2022/03/27 02:45:58;;;;;;;;;41.25;34.75;;;;;12.17;100.00;102085.22;4989360;28;45118;-77
2022/03/27 02:48:23;;;;;;;;;42.00;37.00;;;;;12.17;100.00;102088.81;4989240;28;45279;-82
2022/03/27 02:50:49;;;;;;;;;41.25;33.00;;;;;12.67;100.00;102182.56;4989146;28;45245;-77
2022/03/27 02:53:14;;;;;;;;;46.50;35.50;;;;;12.66;100.00;102178.94;4989443;28;45287;-78
2022/03/27 02:55:40;;;;;;;;;44.50;35.75;;;;;12.38;100.00;102141.34;4989628;28;45340;-77
2022/03/27 02:58:05;;;;;;;;;40.25;35.25;;;;;12.52;100.00;102150.63;4989036;28;45664;-78
2022/03/27 03:00:31;;;;;;;;;42.25;33.25;;;;;12.33;100.00;102123.47;4989164;28;45438;-77
2022/03/27 03:02:57;;;;;;;;;42.50;35.25;;;;;12.52;100.00;102161.53;4989027;28;45185;-77
2022/03/27 03:05:22;;;;;;;;;46.75;37.75;;;;;12.63;100.00;102178.25;4988861;28;45189;-78
2022/03/27 03:07:49;;;;;;;;;43.00;33.25;;;;;12.30;100.00;102127.22;4989129;28;45476;-80
2022/03/27 03:10:14;;;;;;;;;40.25;34.25;;;;;12.62;100.00;102180.09;4988777;28;45112;-78
2022/03/27 03:12:41;;;;;;;;;42.75;35.25;;;;;12.62;100.00;102177.38;4988699;28;45167;-77
2022/03/27 03:15:07;;;;;;;;;41.75;33.75;;;;;11.93;100.00;102060.09;4988369;28;45384;-77
2022/03/27 03:17:33;;;;;;;;;40.75;35.50;;;;;12.49;100.00;102167.19;4988521;28;46026;-76
2022/03/27 03:19:59;;;;;;;;;40.25;32.50;;;;;12.48;100.00;102170.88;4971047;28;45071;-79
2022/03/27 03:22:25;;;;;;;;;36.25;30.75;;;;;12.57;100.00;102184.00;4988695;28;45011;-77
2022/03/27 03:24:50;;;;;;;;;43.75;33.00;;;;;12.22;100.00;102126.75;4988344;28;45084;-80
2022/03/27 03:27:16;;;;;;;;;44.25;35.50;;;;;12.54;100.00;102189.63;4988497;28;45641;-78
2022/03/27 03:29:41;;;;;;;;;47.00;34.75;;;;;12.53;100.00;102185.16;4955019;28;45202;-76
2022/03/27 03:32:07;;;;;;;;;36.50;32.00;;;;;12.52;100.00;102183.34;4987236;28;45214;-78
2022/03/27 03:34:32;;;;;;;;;41.50;34.50;;;;;12.50;100.00;102191.63;4988874;28;45182;-77
2022/03/27 03:36:58;;;;;;;;;40.75;32.75;;;;;11.47;100.00;102009.78;4988540;28;45635;-77
2022/03/27 03:39:23;;;;;;;;;44.75;34.25;;;;;12.47;100.00;102183.63;4988489;28;45199;-78
2022/03/27 03:41:49;;;;;;;;;40.00;32.75;;;;;12.47;100.00;102183.63;4971138;28;45594;-77
2022/03/27 03:44:14;;;;;;;;;40.75;33.50;;;;;12.44;100.00;102176.47;4988162;28;45145;-78
2022/03/27 03:46:39;;;;;;;;;36.00;34.75;;;;;11.67;100.00;102050.50;4988412;28;46065;-78
2022/03/27 03:49:06;;;;;;;;;44.25;34.75;;;;;11.91;100.00;102094.72;4988498;28;45149;-76
2022/03/27 03:51:34;;;;;;;;;42.50;33.50;;;;;12.40;100.00;102183.03;4988453;28;45201;-79
2022/03/27 03:53:59;;;;;;;;;31.25;30.00;;;;;12.17;100.00;102165.16;4988595;28;45282;-77
2022/03/27 03:56:25;;;;;;;;;34.75;33.50;;;;;12.10;100.00;102146.44;4970644;28;46601;-77
2022/03/27 03:58:50;;;;;;;;;37.00;28.50;;;;;12.41;100.00;102192.09;4988815;28;45207;-77
2022/03/27 04:01:15;;;;;;;;;42.75;31.75;;;;;11.92;100.00;102107.41;4988590;28;45123;-78
2022/03/27 04:03:41;;;;;;;;;31.00;27.50;;;;;12.39;100.00;102186.75;4988549;28;45336;-78
2022/03/27 04:06:07;;;;;;;;;35.50;32.75;;;;;12.39;100.00;102204.94;4988144;28;45936;-78
2022/03/27 04:08:33;;;;;;;;;41.00;30.50;;;;;11.53;100.00;102037.56;4988567;28;45413;-77
2022/03/27 04:10:58;;;;;;;;;35.75;32.00;;;;;12.28;100.00;102169.19;4987878;28;45595;-79
2022/03/27 04:13:24;;;;;;;;;35.50;32.00;;;;;12.29;100.00;102163.63;4988293;28;45105;-78
2022/03/27 04:15:49;;;;;;;;;47.25;35.25;;;;;12.07;100.00;102125.69;4988016;28;45634;-77
2022/03/27 04:18:14;;;;;;;;;42.75;35.50;;;;;12.29;100.00;102165.47;4992820;28;45147;-77
2022/03/27 04:20:43;;;;;;;;;42.75;31.25;;;;;12.37;100.00;102183.22;4993573;28;45055;-83
2022/03/27 04:23:09;;;;;;;;;35.00;30.00;;;;;12.37;100.00;102185.06;4992433;28;45200;-77
2022/03/27 04:25:34;;;;;;;;;32.75;30.00;;;;;11.20;100.00;102003.84;4974411;28;47402;-77
2022/03/27 04:28:08;;;;;;;;;37.75;34.50;;;;;11.94;100.00;102128.16;4991674;28;45094;-80
2022/03/27 04:30:34;;;;;;;;;35.25;26.25;;;;;12.30;100.00;102189.94;4992179;28;45174;-77
2022/03/27 04:32:59;;;;;;;;;38.00;29.75;;;;;12.31;100.00;102193.53;4991722;28;44835;-80
2022/03/27 04:35:24;;;;;;;;;39.25;34.75;;;;;11.49;100.00;102046.84;4973365;28;48020;-76
2022/03/27 04:37:50;;;;;;;;;33.00;31.25;;;;;12.25;100.00;102186.56;4991245;28;45043;-77
2022/03/27 04:40:15;;;;;;;;;39.75;33.75;;;;;12.21;100.00;102184.94;4991181;28;45320;-78
2022/03/27 04:42:41;;;;;;;;;44.25;35.50;;;;;10.25;100.00;101839.91;4991315;28;45004;-77
2022/03/27 04:45:08;;;;;;;;;33.25;30.00;;;;;12.26;100.00;102191.03;4991430;28;45641;-78
2022/03/27 04:47:34;;;;;;;;;29.75;24.25;;;;;12.25;100.00;102194.75;4990976;28;45142;-79
2022/03/27 04:49:59;;;;;;;;;37.75;32.75;;;;;12.14;100.00;102186.22;4991379;28;45302;-77
2022/03/27 04:52:25;;;;;;;;;38.00;32.50;;;;;12.18;100.00;102199.63;4991553;28;45028;-77
2022/03/27 04:54:50;;;;;;;;;37.75;33.25;;;;;12.18;100.00;102210.53;4991359;28;45686;-78
2022/03/27 04:57:16;;;;;;;;;37.00;31.50;;;;;12.16;100.00;102196.09;4991070;28;45099;-83
2022/03/27 04:59:41;;;;;;;;;43.50;33.00;;;;;12.08;100.00;102203.78;4991637;28;45209;-84
2022/03/27 05:02:07;;;;;;;;;37.25;32.00;;;;;10.95;100.00;102009.63;4991366;28;45165;-82
2022/03/27 05:04:33;;;;;;;;;41.25;34.25;;;;;12.13;100.00;102209.00;4990978;28;45450;-81
2022/03/27 05:06:58;;;;;;;;;38.25;34.00;;;;;12.05;100.00;102189.41;4972872;28;45212;-81
2022/03/27 05:09:23;;;;;;;;;35.75;30.50;;;;;12.12;100.00;102209.97;4991051;28;45111;-77
2022/03/27 05:11:48;;;;;;;;;33.25;30.50;;;;;11.91;100.00;102180.09;4991397;28;45224;-83
2022/03/27 05:14:14;;;;;;;;;33.75;31.75;;;;;12.01;100.00;102199.56;4990861;28;45232;-83
2022/03/27 05:16:39;;;;;;;;;34.00;29.00;;;;;11.12;100.00;102050.53;4991190;28;45000;-81
2022/03/27 05:19:05;;;;;;;;;41.25;31.00;;;;;12.05;100.00;102220.28;4990940;28;45062;-77
2022/03/27 05:21:32;;;;;;;;;35.25;32.00;;;;;11.61;100.00;102155.22;4990625;28;45039;-77
2022/03/27 05:23:58;;;;;;;;;36.75;32.25;;;;;11.76;100.00;102171.75;4989423;28;46569;-83
2022/03/27 05:26:24;;;;;;;;;40.50;34.25;;;;;11.23;100.00;102086.25;4990802;28;45231;-83
2022/03/27 05:28:49;;;;;;;;;41.00;30.00;;;;;11.21;100.00;102092.75;4990773;28;45166;-79
2022/03/27 05:31:15;;;;;;;;;34.50;29.25;;;;;11.88;100.00;102218.41;4990134;28;45479;-77
2022/03/27 05:33:40;;;;;;;;;35.75;32.75;;;;;11.97;100.00;102218.91;4990602;28;45591;-77
2022/03/27 05:36:10;;;;;;;;;41.50;35.50;;;;;11.88;100.00;102209.34;4989422;28;45168;-78
2022/03/27 05:38:40;;;;;;;;;36.75;33.50;;;;;11.14;100.00;102087.59;4990131;28;45058;-79
2022/03/27 05:41:06;;;;;;;;;35.25;25.50;;;;;11.92;100.00;102222.75;4990589;28;45129;-78
2022/03/27 05:43:32;;;;;;;;;36.00;33.00;;;;;11.86;100.00;102220.31;4989579;28;45709;-77
2022/03/27 05:45:57;;;;;;;;;39.00;32.50;;;;;11.84;100.00;102213.16;4990207;28;45053;-77
2022/03/27 05:48:22;;;;;;;;;32.75;29.25;;;;;11.90;100.00;102238.28;4993938;28;45206;-77
2022/03/27 05:50:48;;;;;;;;;47.00;33.25;;;;;11.90;100.00;102229.22;4994078;28;44993;-77
2022/03/27 05:53:13;;;;;;;;;36.00;33.50;;;;;11.48;100.00;102167.66;4994204;28;45480;-79
2022/03/27 05:55:39;;;;;;;;;30.00;24.50;;;;;11.88;100.00;102233.88;4992031;28;45132;-78
2022/03/27 05:58:05;;;;;;;;;25.25;23.50;;;;;11.83;100.00;102230.47;4991125;28;45004;-79
2022/03/27 06:00:30;;;;;;;;;40.75;35.25;;;;;11.81;100.00;102226.91;4990666;28;45169;-77
2022/03/27 06:02:55;;;;;;;;;34.25;31.75;;;;;11.84;100.00;102237.69;4990388;28;45668;-78
2022/03/27 06:05:24;;;;;;;;;42.00;33.25;;;;;11.74;100.00;102225.44;4989718;28;45028;-79
2022/03/27 06:07:52;;;;;;;;;42.75;34.00;;;;;11.79;100.00;102232.44;4990608;28;45070;-77
2022/03/27 06:10:26;;;;;;;;;40.00;33.75;;;;;11.79;100.00;102246.06;4989939;28;45159;-77
2022/03/27 06:12:53;;;;;;;;;44.25;33.25;;;;;11.60;100.00;102217.91;4990142;28;45121;-76
2022/03/27 06:15:21;;;;;;;;;40.25;33.25;;;;;11.48;100.00;102194.88;4989831;28;45185;-76
2022/03/27 06:17:49;;;;;;;;;38.50;32.25;;;;;11.16;100.00;102148.28;4990225;28;45444;-77
2022/03/27 06:20:20;;;;;;;;;33.50;32.25;;;;;11.77;100.00;102249.81;4990968;28;45157;-77
2022/03/27 06:22:45;;;;;;;;;34.75;32.25;;;;;11.58;100.00;102217.13;4991061;28;46215;-77
2022/03/27 06:25:14;;;;;;;;;36.50;30.25;;;;;10.56;100.00;102054.97;4991186;28;45047;-77
2022/03/27 06:27:39;;;;;;;;;33.25;27.75;;;;;11.74;100.00;102271.75;4988603;28;45070;-77
2022/03/27 06:30:07;;;;;;;;;39.50;35.75;;;;;11.73;100.00;102251.81;4989941;28;45047;-77
2022/03/27 06:32:34;;;;;;;;;42.25;34.25;;;;;9.84;100.00;101924.19;4989633;28;45368;-77
2022/03/27 06:35:00;;;;;;;;;39.25;32.50;;;;;11.52;100.00;102218.31;4989321;28;45094;-77
2022/03/27 06:37:26;;;;;;;;;44.75;35.25;;;;;11.62;100.00;102233.25;4989488;28;45022;-77
2022/03/27 06:39:54;;;;;;;;;40.75;31.00;;;;;11.03;100.00;102151.66;4989400;28;44992;-79
2022/03/27 06:42:19;;;;;;;;;38.25;34.50;;;;;10.52;100.00;102058.78;4988712;28;46029;-77
2022/03/27 06:44:45;;;;;;;;;39.50;32.50;;;;;11.69;100.00;102256.50;4988707;28;45493;-77
2022/03/27 06:47:10;;;;;;;;;34.75;25.50;;;;;11.70;100.00;102262.84;4988592;28;45129;-77
2022/03/27 06:49:35;;;;;;;;;35.75;31.25;;;;;11.58;100.00;102238.91;4989467;28;45296;-78
2022/03/27 06:52:01;;;;;;;;;35.75;30.75;;;;;11.65;100.00;102246.72;4989397;28;45181;-77
2022/03/27 06:54:29;;;;;;;;;43.75;33.00;;;;;11.52;100.00;102239.22;4989434;28;45212;-77
2022/03/27 06:56:55;;;;;;;;;48.75;36.00;;;;;11.34;100.00;102206.44;4989261;28;45027;-76
2022/03/27 06:59:20;;;;;;;;;35.00;32.50;;;;;11.66;100.00;102255.78;4989177;28;45129;-77
2022/03/27 07:04:29;;;;;;;;;43.00;36.50;;;;;11.42;100.00;102217.84;4989362;28;45258;-77
2022/03/27 07:06:55;;;;;;;;;37.00;35.00;;;;;11.60;100.00;102237.00;4989193;28;45287;-77
2022/03/27 07:09:20;;;;;;;;;37.25;33.75;;;;;11.43;100.00;102219.63;4989055;28;45322;-77
2022/03/27 07:11:47;;;;;;;;;41.00;36.50;;;;;11.64;100.00;102260.41;4987178;28;45571;-78
2022/03/27 07:14:13;;;;;;;;;46.25;34.50;;;;;11.33;100.00;102201.94;4986212;28;45193;-77
2022/03/27 07:16:40;;;;;;;;;40.50;33.75;;;;;11.64;100.00;102255.84;4988900;28;45063;-76
2022/03/27 07:19:05;;;;;;;;;38.25;34.50;;;;;11.40;100.00;102210.69;4970866;28;45150;-76
2022/03/27 07:21:31;;;;;;;;;45.25;37.50;;;;;11.60;100.00;102242.44;4987034;28;47476;-76
2022/03/27 07:23:56;;;;;;;;;44.50;34.75;;;;;11.55;100.00;102237.22;4988277;28;45272;-75
2022/03/27 07:26:22;;;;;;;;;39.50;31.75;;;;;11.70;100.00;102266.44;4988407;28;45202;-76
2022/03/27 07:28:48;;;;;;;;;33.50;31.00;;;;;11.07;100.00;102148.72;4992596;28;44862;-75
2022/03/27 07:31:13;;;;;;;;;40.00;29.75;;;;;11.24;100.00;102177.88;4994074;28;45078;-79
2022/03/27 07:33:39;;;;;;;;;37.75;32.25;;;;;11.12;100.00;102164.84;4999874;28;44942;-75
2022/03/27 07:36:04;;;;;;;;;40.25;32.00;;;;;11.74;100.00;102272.63;4996392;28;45066;-76
2022/03/27 07:38:30;;;;;;;;;35.00;32.25;;;;;11.51;100.00;102232.00;4989059;28;45240;-76
2022/03/27 07:40:55;;;;;;;;;42.25;36.00;;;;;11.62;100.00;102259.63;4991385;28;45372;-81
2022/03/27 07:43:21;;;;;;;;;41.00;36.00;;;;;11.70;100.00;102271.00;4994262;28;45245;-77
2022/03/27 07:45:46;;;;;;;;;41.25;34.75;;;;;11.69;100.00;102277.41;4999204;28;44920;-78
2022/03/27 07:48:12;;;;;;;;;32.25;31.00;;;;;11.38;100.00;102218.94;4988822;28;45593;-74
2022/03/27 07:50:37;;;;;;;;;35.25;31.50;;;;;11.37;100.00;102210.84;4985318;28;45624;-76
2022/03/27 07:53:04;;;;;;;;;36.00;29.25;;;;;11.69;100.00;102261.06;4985544;28;45445;-76
2022/03/27 07:55:30;;;;;;;;;38.25;32.75;;;;;11.74;100.00;102271.75;4987037;28;45289;-76
2022/03/27 07:57:56;;;;;;;;;35.00;30.25;;;;;11.74;100.00;102267.19;4987990;28;45253;-75
2022/03/27 08:00:23;;;;;;;;;41.75;34.00;;;;;11.79;100.00;102276.03;4987450;28;45307;-77
2022/03/27 08:02:48;;;;;;;;;40.25;32.50;;;;;11.67;100.00;102243.94;4987946;28;45231;-76
2022/03/27 08:05:14;;;;;;;;;41.25;33.50;;;;;11.55;100.00;102214.53;4988263;28;45122;-77
2022/03/27 08:07:40;;;;;;;;;38.75;33.00;;;;;11.92;100.00;102269.06;4986520;28;45233;-75
2022/03/27 08:10:06;;;;;;;;;39.75;34.25;;;;;11.82;100.00;102245.94;4987731;28;45152;-76
2022/03/27 08:12:32;;;;;;;;;44.25;34.00;;;;;11.37;100.00;102165.44;4988400;28;45306;-75
2022/03/27 08:15:01;;;;;;;;;33.00;29.50;;;;;12.03;100.00;102276.72;4989101;28;45082;-77
2022/03/27 08:17:27;;;;;;;;;38.25;33.50;;;;;11.85;100.00;102234.88;4988460;28;45054;-77
2022/03/27 08:19:52;;;;;;;;;35.00;32.00;;;;;12.02;100.00;102255.00;4988540;28;45314;-77
2022/03/27 08:22:21;;;;;;;;;31.50;28.50;;;;;12.07;100.00;102266.56;4988723;28;45549;-77
2022/03/27 08:24:46;;;;;;;;;34.50;32.25;;;;;11.47;100.00;102145.94;4989407;28;45209;-78
2022/03/27 08:27:12;;;;;;;;;30.25;29.00;;;;;12.27;100.00;102277.38;4992369;28;45035;-81
2022/03/27 08:29:41;;;;;;;;;29.75;27.25;;;;;12.12;100.00;102249.03;4991419;28;45239;-77
2022/03/27 08:32:09;;;;;;;;;33.50;30.75;;;;;12.25;100.00;102257.47;4988595;28;45253;-76
2022/03/27 08:34:37;;;;;;;;;31.00;26.00;;;;;12.42;100.00;102273.88;4988763;28;45164;-76
2022/03/27 08:37:08;;;;;;;;;37.75;31.50;;;;;12.09;100.00;102212.84;4987984;28;45285;-78
2022/03/27 08:39:35;;;;;;;;;33.50;30.25;;;;;12.42;100.00;102264.81;4987892;28;45237;-76
2022/03/27 08:42:00;;;;;;;;;29.50;26.50;;;;;12.26;100.00;102223.78;4988414;28;45016;-75
2022/03/27 08:44:28;;;;;;;;;35.25;29.25;;;;;12.65;100.00;102277.25;4987221;28;45004;-77
2022/03/27 08:46:56;;;;;;;;;29.50;26.50;;;;;12.53;100.00;102237.88;4987847;28;45146;-76
2022/03/27 08:49:33;;;;;;;;;31.25;28.00;;;;;12.75;100.00;102274.94;4987957;28;45164;-78
2022/03/27 08:52:04;;;;;;;;;30.00;27.75;;;;;12.79;100.00;102276.56;4987503;28;45192;-75
2022/03/27 08:54:38;;;;;;;;;30.25;28.00;;;;;12.43;100.00;102210.19;4988056;28;45161;-75
2022/03/27 08:57:24;;;;;;;;;32.50;24.50;;;;;12.87;100.00;102277.03;4986182;28;45141;-75
2022/03/27 08:59:53;;;;;;;;;33.00;30.00;;;;;12.25;100.00;102161.13;4987383;28;46016;-74
2022/03/27 09:02:22;;;;;;;;;27.25;25.00;;;;;12.94;100.00;102276.63;4987728;28;44999;-78
2022/03/27 09:04:59;;;;;;;;;28.25;23.75;;;;;12.53;100.00;102199.66;4987151;28;45109;-77
2022/03/27 09:07:28;;;;;;;;;33.25;29.00;;;;;12.91;100.00;102267.72;4985916;28;45241;-76
2022/03/27 09:09:55;;;;;;;;;33.25;27.75;;;;;12.25;100.00;102137.47;4988096;28;45804;-77
2022/03/27 09:12:21;;;;;;;;;31.25;26.75;;;;;12.87;100.00;102236.09;4990999;28;45146;-77
2022/03/27 09:14:48;;;;;;;;;29.75;24.75;;;;;13.01;100.00;102257.19;4990802;28;45285;-78
2022/03/27 09:17:15;;;;;;;;;31.25;29.00;;;;;13.25;100.00;102296.88;4990797;28;45439;-77
2022/03/27 09:19:46;;;;;;;;;28.75;28.75;;;;;13.09;100.00;102250.38;4990560;28;45775;-80
2022/03/27 09:22:17;;;;;;;;;33.00;31.50;;;;;13.33;100.00;102297.38;4972814;28;45245;-78
2022/03/27 09:24:47;;;;;;;;;29.00;22.00;;;;;13.38;98.69;102287.09;4990904;28;45343;-76
2022/03/27 09:27:14;;;;;;;;;32.75;29.00;;;;;13.43;100.00;102292.25;4990616;28;45289;-78
2022/03/27 09:29:59;;;;;;;;;29.00;24.50;;;;;13.47;100.00;102291.13;4990717;28;45926;-76
2022/03/27 09:32:35;;;;;;;;;32.75;27.25;;;;;13.28;100.00;102247.56;4990101;28;45170;-76
2022/03/27 09:35:10;;;;;;;;;40.50;31.25;;;;;13.43;100.00;102259.47;4990295;28;45182;-77
2022/03/27 09:37:38;;;;;;;;;23.25;23.00;;;;;13.45;98.66;102271.22;4990131;28;45095;-76
2022/03/27 09:40:06;;;;;;;;;34.00;29.25;;;;;13.60;98.24;102281.31;4990544;28;45263;-77
2022/03/27 09:42:32;;;;;;;;;32.50;26.25;;;;;13.62;98.16;102279.38;4990010;28;45420;-75
2022/03/27 09:45:23;;;;;;;;;32.75;26.50;;;;;13.69;98.08;102289.00;4989998;28;45190;-74
2022/03/27 09:47:52;;;;;;;;;34.50;33.00;;;;;13.73;97.61;102278.75;4990652;28;45150;-73
2022/03/27 09:50:35;;;;;;;;;29.75;24.25;;;;;13.79;96.67;102285.75;4989916;28;45469;-74
2022/03/27 09:53:25;;;;;;;;;24.50;23.25;;;;;13.84;98.49;102278.16;4990342;28;45118;-76
2022/03/27 09:56:13;;;;;;;;;36.00;30.25;;;;;13.87;95.90;102284.34;4990141;28;45062;-76
2022/03/27 09:58:46;;;;;;;;;28.00;25.25;;;;;13.91;97.26;102283.22;4971987;28;45028;-76
2022/03/27 10:01:14;;;;;;;;;27.25;21.50;;;;;13.92;100.00;102273.16;4989907;28;45380;-76
2022/03/27 10:04:01;;;;;;;;;31.00;26.25;;;;;13.96;97.34;102269.28;4989855;28;45252;-76
2022/03/27 10:06:34;;;;;;;;;36.75;30.25;;;;;13.99;95.85;102271.84;4989781;28;45494;-80
2022/03/27 10:09:01;;;;;;;;;29.25;28.00;;;;;14.02;95.36;102267.06;4989937;28;45110;-79
2022/03/27 10:11:28;;;;;;;;;35.25;27.00;;;;;14.07;95.02;102268.66;4989775;28;45567;-79
2022/03/27 10:13:54;;;;;;;;;35.00;27.25;;;;;14.11;97.12;102270.25;4989738;28;45253;-77
2022/03/27 10:16:24;;;;;;;;;35.25;31.00;;;;;13.83;95.38;102208.06;4989787;28;45138;-76
2022/03/27 10:18:54;;;;;;;;;34.00;26.50;;;;;14.19;96.86;102260.66;4989843;28;45257;-75
2022/03/27 10:21:23;;;;;;;;;27.25;26.25;;;;;14.23;96.35;102264.06;4989077;28;45298;-77
2022/03/27 10:24:03;;;;;;;;;36.75;28.75;;;;;14.25;97.17;102256.66;4989715;28;45245;-76
2022/03/27 10:26:30;;;;;;;;;28.00;26.75;;;;;14.26;98.19;102252.97;4989911;28;45142;-76
2022/03/27 10:28:55;;;;;;;;;31.00;27.75;;;;;14.18;95.89;102230.63;4991117;28;45193;-76
2022/03/27 10:31:23;;;;;;;;;32.00;28.25;;;;;14.02;96.83;102192.34;4991628;28;45613;-75
2022/03/27 10:33:50;;;;;;;;;31.25;28.75;;;;;14.39;93.68;102251.25;4989912;28;45174;-76
2022/03/27 10:36:47;;;;;;;;;32.00;26.75;;;;;14.11;91.26;102180.00;4989367;28;45091;-77
2022/03/27 10:39:28;;;;;;;;;32.25;29.50;;;;;14.49;91.08;102225.13;4989216;28;45095;-77
2022/03/27 10:42:23;;;;;;;;;38.00;30.00;;;;;14.57;88.25;102232.88;4989009;28;45862;-76
2022/03/27 10:45:00;;;;;;;;;35.00;30.25;;;;;14.13;91.00;102142.50;4989141;28;45177;-77
2022/03/27 10:47:29;;;;;;;;;33.00;29.75;;;;;14.68;89.10;102232.25;4989600;28;44956;-78
2022/03/27 10:50:00;;;;;;;;;27.50;25.75;;;;;14.73;91.93;102227.38;4989169;28;45058;-77
2022/03/27 10:52:26;;;;;;;;;33.00;29.67;;;;;14.60;88.55;102194.41;4989146;28;45892;-77
2022/03/27 10:55:01;;;;;;;;;34.00;29.00;;;;;13.90;89.86;102062.72;4989209;28;45114;-78
2022/03/27 10:57:32;;;;;;;;;35.25;27.25;;;;;14.60;87.43;102168.84;4986778;28;44842;-77
2022/03/27 10:59:58;;;;;;;;;33.00;28.00;;;;;14.92;88.83;102207.97;4988447;28;45082;-78
2022/03/27 11:02:53;;;;;;;;;32.25;30.50;;;;;14.96;84.55;102206.81;4989139;28;45169;-76
2022/03/27 11:05:50;;;;;;;;;33.00;28.75;;;;;15.03;84.03;102203.56;4978783;28;45090;-76
2022/03/27 11:08:19;;;;;;;;;29.75;25.25;;;;;15.08;82.99;102203.28;4970430;28;45233;-77
2022/03/27 11:10:59;;;;;;;;;31.00;27.25;;;;;15.14;82.27;102202.00;4989260;28;44982;-82